Time;durP1;ratioP1;P1;durP2;ratioP2;P2;SDS_P1;SDS_P2;PMS_P1;PMS_P2;Temp;Humidity;BMP_temperature;BMP_pressure;BME280_temperature;BME280_humidity;BME280_pressure;Samples;Min_cycle;Max_cycle;Signal;HPM_P1;HPM_P2
2020/12/26 06:04:54;;;;;;;;;;;;;;;;;;5142034;27;20853;-62
2020/12/26 06:07:22;;;;;;;4.35;1.20;;;;;;;;;;5126521;28;20398;-62
2020/12/26 06:09:50;;;;;;;5.68;1.60;;;;;;;;;;5125030;27;20031;-62
2020/12/26 06:12:17;;;;;;;4.88;1.30;;;;;;;;;;5128741;27;20404;-62
2020/12/26 06:14:43;;;;;;;8.32;2.05;;;;;;;;;;5125504;28;20034;-62
2020/12/26 06:17:09;;;;;;;5.00;1.27;;;;;;;;;;5125951;27;20023;-62
2020/12/26 06:19:37;;;;;;;5.75;2.15;;;;;;;;;;5122024;27;20034;-63
2020/12/26 06:22:03;;;;;;;3.97;1.23;;;;;;;;;;5124481;27;20035;-62
2020/12/26 06:24:29;;;;;;;4.25;1.98;;;;;;;;;;5127144;27;20114;-62
2020/12/26 06:26:59;;;;;;;11.50;1.80;;;;;;;;;;5126377;28;20479;-63
2020/12/26 06:29:29;;;;;;;3.47;1.55;;;;;;;;;;5122965;27;20357;-62
2020/12/26 06:31:56;;;;;;;4.80;1.98;;;;;;;;;;5123663;28;20480;-62
2020/12/26 06:34:23;;;;;;;5.80;1.80;;;;;;;;;;5124311;27;20019;-62
2020/12/26 06:36:55;;;;;;;8.07;1.90;;;;;;;;;;5125725;27;20053;-62
2020/12/26 06:39:27;;;;;;;4.18;1.67;;;;;;;;;;5122696;28;20061;-61
2020/12/26 06:42:11;;;;;;;6.20;2.13;;;;;;;;;;5127521;28;20028;-62
2020/12/26 06:44:37;;;;;;;2.97;1.70;;;;;;;;;;5124497;27;20023;-61
2020/12/26 06:47:03;;;;;;;3.97;1.60;;;;;;;;;;5123124;28;20092;-62
2020/12/26 06:49:30;;;;;;;5.43;2.17;;;;;;;;;;5124289;27;20070;-62
2020/12/26 06:51:56;;;;;;;6.43;2.15;;;;;;;;;;5124328;27;20035;-61
2020/12/26 06:54:41;;;;;;;5.88;3.38;;;;;;;;;;5128141;27;20020;-61
2020/12/26 06:57:07;;;;;;;5.63;2.95;;;;;;;;;;5123586;28;20460;-62
2020/12/26 06:59:34;;;;;;;8.77;3.08;;;;;;;;;;5124304;28;20491;-62
2020/12/26 07:02:04;;;;;;;9.13;3.10;;;;;;;;;;5111523;27;20024;-61
2020/12/26 07:04:36;;;;;;;5.22;3.05;;;;;;;;;;5101212;28;20039;-61
2020/12/26 07:07:02;;;;;;;5.80;3.25;;;;;;;;;;5098970;28;20077;-61
2020/12/26 07:09:37;;;;;;;5.73;3.40;;;;;;;;;;5113521;28;20581;-62
2020/12/26 07:12:04;;;;;;;9.50;3.90;;;;;;;;;;5112012;28;20409;-64
2020/12/26 07:14:37;;;;;;;7.57;2.88;;;;;;;;;;5105049;28;20107;-64
2020/12/26 07:17:15;;;;;;;7.63;3.30;;;;;;;;;;5108964;28;20055;-63
2020/12/26 07:19:42;;;;;;;7.57;3.20;;;;;;;;;;5111016;28;20031;-64
2020/12/26 07:22:16;;;;;;;8.07;4.05;;;;;;;;;;5103881;27;20028;-63
2020/12/26 07:24:46;;;;;;;6.15;3.88;;;;;;;;;;5109775;28;20476;-64
2020/12/26 07:27:15;;;;;;;7.07;3.60;;;;;;;;;;5098458;28;20051;-63
2020/12/26 07:29:49;;;;;;;10.07;3.05;;;;;;;;;;5112069;28;20038;-62
2020/12/26 07:32:34;;;;;;;8.13;3.47;;;;;;;;;;5104562;28;20068;-62
2020/12/26 07:35:00;;;;;;;13.57;4.03;;;;;;;;;;5106003;28;20027;-63
2020/12/26 07:37:26;;;;;;;9.88;3.67;;;;;;;;;;5112813;28;20551;-64
2020/12/26 07:39:52;;;;;;;5.80;3.47;;;;;;;;;;5112281;28;20062;-63
2020/12/26 07:42:18;;;;;;;10.18;4.45;;;;;;;;;;5109976;28;20024;-63
2020/12/26 07:44:45;;;;;;;11.07;3.88;;;;;;;;;;5100600;28;20043;-63
2020/12/26 07:47:12;;;;;;;10.18;4.68;;;;;;;;;;5100728;28;20384;-63
2020/12/26 07:49:38;;;;;;;9.63;3.50;;;;;;;;;;5103318;28;20024;-63
2020/12/26 07:52:07;;;;;;;6.00;3.75;;;;;;;;;;5113094;28;20449;-62
2020/12/26 07:54:33;;;;;;;11.63;4.50;;;;;;;;;;5112784;28;20024;-63
2020/12/26 07:56:59;;;;;;;7.07;3.85;;;;;;;;;;5112993;28;20103;-58
2020/12/26 07:59:26;;;;;;;9.02;4.50;;;;;;;;;;5112810;28;20024;-59
2020/12/26 08:01:52;;;;;;;7.75;4.30;;;;;;;;;;5112786;28;20544;-57
2020/12/26 08:04:19;;;;;;;10.50;4.38;;;;;;;;;;5112190;28;20225;-58
2020/12/26 08:06:45;;;;;;;10.35;4.95;;;;;;;;;;5112666;28;20039;-59
2020/12/26 08:09:15;;;;;;;8.00;4.78;;;;;;;;;;5113262;28;20133;-58
2020/12/26 08:11:42;;;;;;;10.40;4.18;;;;;;;;;;5112445;28;20036;-56
2020/12/26 08:14:08;;;;;;;9.40;3.65;;;;;;;;;;5111674;28;20031;-57
2020/12/26 08:16:35;;;;;;;7.47;3.95;;;;;;;;;;5112292;28;20072;-56
2020/12/26 08:19:01;;;;;;;10.80;4.60;;;;;;;;;;5112434;28;20592;-58
2020/12/26 08:21:28;;;;;;;12.63;3.97;;;;;;;;;;5104416;28;20110;-59
2020/12/26 08:23:57;;;;;;;12.27;4.22;;;;;;;;;;5112661;28;20031;-59
2020/12/26 08:26:28;;;;;;;4.97;3.70;;;;;;;;;;5112297;28;20027;-59
2020/12/26 08:29:05;;;;;;;6.85;3.60;;;;;;;;;;5112046;28;20373;-60
2020/12/26 08:31:33;;;;;;;8.57;3.75;;;;;;;;;;5105093;28;20046;-59
2020/12/26 08:34:08;;;;;;;9.43;2.92;;;;;;;;;;5110688;28;20068;-59
2020/12/26 08:36:38;;;;;;;5.18;2.88;;;;;;;;;;5109956;28;20420;-59
2020/12/26 08:39:06;;;;;;;8.45;2.65;;;;;;;;;;5106491;28;20396;-60
2020/12/26 08:41:33;;;;;;;4.90;2.70;;;;;;;;;;5109117;28;20061;-59
2020/12/26 08:43:59;;;;;;;6.03;2.78;;;;;;;;;;5105360;28;20072;-60
2020/12/26 08:46:26;;;;;;;6.43;2.30;;;;;;;;;;5104347;28;20420;-59
2020/12/26 08:48:53;;;;;;;6.70;2.50;;;;;;;;;;5111811;28;20020;-58
2020/12/26 08:51:26;;;;;;;4.50;2.20;;;;;;;;;;5111936;28;20038;-59
2020/12/26 08:53:53;;;;;;;9.85;3.22;;;;;;;;;;5111458;28;20024;-59
2020/12/26 08:56:32;;;;;;;5.88;3.08;;;;;;;;;;5111779;28;20020;-59
2020/12/26 08:58:58;;;;;;;7.65;3.08;;;;;;;;;;5105064;28;20023;-58
2020/12/26 09:01:24;;;;;;;8.48;3.50;;;;;;;;;;5111182;28;20488;-60
2020/12/26 09:03:51;;;;;;;4.85;2.15;;;;;;;;;;5111320;28;20729;-58
2020/12/26 09:06:17;;;;;;;3.67;2.22;;;;;;;;;;5112326;28;20110;-57
2020/12/26 09:08:43;;;;;;;6.78;2.30;;;;;;;;;;5111463;28;20032;-60
2020/12/26 09:11:10;;;;;;;5.95;2.40;;;;;;;;;;5108764;28;20657;-63
2020/12/26 09:13:37;;;;;;;6.80;2.38;;;;;;;;;;5106288;28;20104;-62
2020/12/26 09:16:04;;;;;;;5.90;2.80;;;;;;;;;;5111173;28;20032;-68
2020/12/26 09:18:35;;;;;;;5.63;2.67;;;;;;;;;;5111429;28;20024;-62
2020/12/26 09:21:01;;;;;;;10.25;2.60;;;;;;;;;;5109249;28;20027;-63
2020/12/26 09:23:31;;;;;;;6.95;2.47;;;;;;;;;;5111081;28;20448;-61
2020/12/26 09:26:16;;;;;;;5.57;2.38;;;;;;;;;;5104354;28;20189;-62
2020/12/26 09:28:44;;;;;;;7.13;1.70;;;;;;;;;;5111077;28;20396;-63
2020/12/26 09:31:11;;;;;;;9.98;1.95;;;;;;;;;;5110133;28;20488;-63
2020/12/26 09:33:38;;;;;;;6.70;1.85;;;;;;;;;;5110689;28;20023;-63
2020/12/26 09:36:04;;;;;;;9.15;2.15;;;;;;;;;;5110820;28;20072;-62
2020/12/26 09:38:30;;;;;;;5.97;1.65;;;;;;;;;;5110356;28;20612;-63
2020/12/26 09:40:57;;;;;;;5.78;2.58;;;;;;;;;;5110589;28;20020;-63
2020/12/26 09:43:23;;;;;;;8.27;1.40;;;;;;;;;;5110929;28;20502;-63
2020/12/26 09:45:50;;;;;;;2.55;1.30;;;;;;;;;;5109710;28;20015;-63
2020/12/26 09:48:16;;;;;;;8.30;2.10;;;;;;;;;;5111837;28;20110;-63
2020/12/26 09:50:42;;;;;;;5.45;1.48;;;;;;;;;;5109863;28;20046;-64
2020/12/26 09:53:08;;;;;;;7.35;1.90;;;;;;;;;;5110522;28;20019;-62
2020/12/26 09:55:34;;;;;;;5.53;1.75;;;;;;;;;;5110350;28;20075;-62
2020/12/26 09:58:00;;;;;;;3.28;1.30;;;;;;;;;;5110927;28;20094;-63
2020/12/26 10:00:28;;;;;;;8.73;1.70;;;;;;;;;;5110261;28;20027;-63
2020/12/26 10:02:54;;;;;;;8.02;1.33;;;;;;;;;;5110953;28;20071;-64
2020/12/26 10:05:20;;;;;;;11.02;1.42;;;;;;;;;;5110751;28;20038;-62
2020/12/26 10:07:46;;;;;;;8.48;1.52;;;;;;;;;;5110590;28;20600;-64
2020/12/26 10:10:12;;;;;;;5.22;1.20;;;;;;;;;;5110561;28;20157;-57
2020/12/26 10:12:38;;;;;;;7.35;1.20;;;;;;;;;;5110393;28;20032;-56
2020/12/26 10:15:05;;;;;;;7.60;1.25;;;;;;;;;;5109881;28;20038;-57
2020/12/26 10:17:31;;;;;;;4.55;1.15;;;;;;;;;;5107811;28;20024;-57
2020/12/26 10:19:57;;;;;;;7.78;1.52;;;;;;;;;;5107571;28;20089;-56
2020/12/26 10:22:23;;;;;;;4.93;1.25;;;;;;;;;;5108119;28;20081;-58
2020/12/26 10:24:49;;;;;;;5.38;1.13;;;;;;;;;;5108588;28;20015;-56
2020/12/26 10:27:15;;;;;;;4.28;1.15;;;;;;;;;;5108201;28;20396;-55
2020/12/26 10:29:41;;;;;;;6.82;1.45;;;;;;;;;;5107875;28;20046;-54
2020/12/26 10:32:07;;;;;;;6.70;1.02;;;;;;;;;;5107280;28;20433;-57
2020/12/26 10:34:34;;;;;;;3.97;1.00;;;;;;;;;;5107415;28;20047;-55
2020/12/26 10:37:00;;;;;;;6.13;0.90;;;;;;;;;;5109687;28;20023;-57
2020/12/26 10:39:26;;;;;;;4.18;1.00;;;;;;;;;;5111731;28;20019;-58
2020/12/26 10:41:52;;;;;;;6.93;1.30;;;;;;;;;;5111976;28;20051;-56
2020/12/26 10:44:18;;;;;;;4.78;1.13;;;;;;;;;;5111973;28;20030;-58
2020/12/26 10:46:44;;;;;;;4.82;0.75;;;;;;;;;;5111530;28;20039;-59
2020/12/26 10:49:10;;;;;;;3.53;0.63;;;;;;;;;;5111160;28;20457;-58
2020/12/26 10:51:37;;;;;;;1.52;0.60;;;;;;;;;;5110338;28;20035;-57
2020/12/26 10:54:03;;;;;;;5.38;0.82;;;;;;;;;;5111515;28;20569;-57
2020/12/26 10:56:29;;;;;;;2.03;0.75;;;;;;;;;;5110308;28;20484;-58
2020/12/26 10:58:55;;;;;;;6.40;1.70;;;;;;;;;;5110831;28;20454;-56
2020/12/26 11:01:31;;;;;;;3.40;0.80;;;;;;;;;;5109526;28;20463;-59
2020/12/26 11:03:57;;;;;;;7.22;1.10;;;;;;;;;;5106308;28;20048;-62
2020/12/26 11:06:23;;;;;;;4.22;1.20;;;;;;;;;;5111955;28;20031;-62
2020/12/26 11:08:49;;;;;;;5.10;1.00;;;;;;;;;;5112880;28;20032;-62
2020/12/26 11:11:15;;;;;;;2.47;0.80;;;;;;;;;;5110217;28;20039;-62
2020/12/26 11:13:42;;;;;;;4.13;0.73;;;;;;;;;;5111989;28;20077;-62
2020/12/26 11:16:20;;;;;;;4.25;0.70;;;;;;;;;;5112429;27;20027;-62
2020/12/26 11:21:34;;;;;;;3.97;0.80;;;;;;;;;;5112485;28;20110;-65
2020/12/26 11:24:19;;;;;;;6.40;1.08;;;;;;;;;;5108584;28;20073;-62
2020/12/26 11:26:48;;;;;;;6.90;1.15;;;;;;;;;;5112417;28;20034;-57
2020/12/26 11:29:15;;;;;;;5.00;0.80;;;;;;;;;;5108736;28;20496;-59
2020/12/26 11:31:41;;;;;;;7.60;1.58;;;;;;;;;;5108276;28;20108;-58
2020/12/26 11:34:13;;;;;;;7.65;1.00;;;;;;;;;;5110677;28;20489;-58
2020/12/26 11:36:40;;;;;;;3.00;0.80;;;;;;;;;;5112076;28;20042;-58
2020/12/26 11:39:06;;;;;;;3.30;0.90;;;;;;;;;;5113627;28;20027;-56
2020/12/26 11:41:32;;;;;;;6.53;1.00;;;;;;;;;;5112061;28;20024;-57
2020/12/26 11:43:58;;;;;;;7.28;1.42;;;;;;;;;;5112677;28;20051;-58
2020/12/26 11:46:25;;;;;;;8.25;1.17;;;;;;;;;;5113040;28;20035;-58
2020/12/26 11:48:51;;;;;;;5.13;1.50;;;;;;;;;;5112737;28;20016;-59
2020/12/26 11:51:17;;;;;;;5.82;1.30;;;;;;;;;;5112216;28;20047;-64
2020/12/26 11:53:43;;;;;;;5.65;1.30;;;;;;;;;;5112511;28;20030;-62
2020/12/26 11:56:10;;;;;;;7.65;1.33;;;;;;;;;;5112678;28;20082;-63
2020/12/26 11:58:37;;;;;;;4.75;1.30;;;;;;;;;;5112300;28;20058;-67
2020/12/26 12:01:03;;;;;;;6.20;1.10;;;;;;;;;;5112197;28;20477;-62
2020/12/26 12:03:30;;;;;;;4.57;0.82;;;;;;;;;;5112128;28;20086;-63
2020/12/26 12:05:56;;;;;;;2.45;1.05;;;;;;;;;;5112989;28;20102;-62
2020/12/26 12:08:22;;;;;;;4.15;1.13;;;;;;;;;;5112576;28;20028;-62
2020/12/26 12:10:48;;;;;;;6.28;1.00;;;;;;;;;;5112111;28;20028;-63
2020/12/26 12:13:14;;;;;;;5.72;1.05;;;;;;;;;;5112502;28;20019;-62
2020/12/26 12:15:41;;;;;;;5.40;1.58;;;;;;;;;;5112414;28;20441;-62
2020/12/26 12:18:07;;;;;;;4.97;0.73;;;;;;;;;;5110369;28;20032;-61
2020/12/26 12:20:34;;;;;;;4.13;0.90;;;;;;;;;;5112199;28;20019;-61
2020/12/26 12:23:00;;;;;;;5.80;1.10;;;;;;;;;;5112018;28;20028;-61
2020/12/26 12:25:27;;;;;;;6.30;0.88;;;;;;;;;;5112124;28;20020;-61
2020/12/26 12:27:53;;;;;;;5.75;1.48;;;;;;;;;;5111884;28;20027;-60
2020/12/26 12:30:19;;;;;;;4.72;1.30;;;;;;;;;;5112666;28;20411;-61
2020/12/26 12:32:46;;;;;;;5.40;1.40;;;;;;;;;;5112115;28;20500;-60
2020/12/26 12:35:12;;;;;;;4.35;1.20;;;;;;;;;;5111286;28;20057;-60
2020/12/26 12:37:38;;;;;;;5.75;1.30;;;;;;;;;;5111452;28;20028;-61
2020/12/26 12:40:05;;;;;;;5.85;1.05;;;;;;;;;;5111987;28;20361;-60
2020/12/26 12:42:31;;;;;;;8.77;1.55;;;;;;;;;;5111707;28;20472;-60
2020/12/26 12:44:57;;;;;;;4.60;0.90;;;;;;;;;;5109521;28;20043;-60
2020/12/26 12:47:24;;;;;;;3.75;1.48;;;;;;;;;;5111049;28;20028;-60
2020/12/26 12:49:50;;;;;;;5.25;1.40;;;;;;;;;;5111437;28;20020;-61
2020/12/26 12:52:17;;;;;;;5.22;1.13;;;;;;;;;;5110376;28;20092;-60
2020/12/26 12:54:43;;;;;;;5.53;1.10;;;;;;;;;;5111575;28;20062;-61
2020/12/26 12:57:09;;;;;;;5.65;1.20;;;;;;;;;;5111918;28;20031;-60
2020/12/26 12:59:36;;;;;;;5.50;1.00;;;;;;;;;;5110992;28;20645;-61
2020/12/26 13:02:03;;;;;;;4.05;0.90;;;;;;;;;;5109234;28;20024;-61
2020/12/26 13:04:30;;;;;;;6.38;0.98;;;;;;;;;;5107253;28;20040;-61
2020/12/26 13:06:56;;;;;;;5.20;1.05;;;;;;;;;;5109088;28;20025;-60
2020/12/26 13:09:22;;;;;;;3.47;0.80;;;;;;;;;;5111624;28;20400;-60
2020/12/26 13:11:48;;;;;;;5.35;1.00;;;;;;;;;;5107029;28;20046;-60
2020/12/26 13:14:15;;;;;;;8.20;1.00;;;;;;;;;;5106942;28;20611;-60
2020/12/26 13:16:41;;;;;;;5.10;0.90;;;;;;;;;;5106696;28;20032;-61
2020/12/26 13:19:07;;;;;;;6.32;1.20;;;;;;;;;;5103238;27;20178;-61
2020/12/26 13:21:33;;;;;;;5.68;1.30;;;;;;;;;;5110799;28;20032;-61
2020/12/26 13:23:59;;;;;;;7.72;0.98;;;;;;;;;;5109321;28;20028;-62
2020/12/26 13:26:26;;;;;;;5.05;0.90;;;;;;;;;;5106300;28;20381;-61
2020/12/26 13:28:53;;;;;;;4.40;0.90;;;;;;;;;;5105914;28;20027;-62
2020/12/26 13:31:29;;;;;;;8.32;1.27;;;;;;;;;;5106549;28;20027;-65
2020/12/26 13:33:55;;;;;;;4.95;0.80;;;;;;;;;;5094677;28;20035;-62
2020/12/26 13:36:22;;;;;;;6.28;1.73;;;;;;;;;;5109796;28;20104;-62
2020/12/26 13:38:48;;;;;;;3.70;0.98;;;;;;;;;;5110334;28;20563;-62
2020/12/26 13:41:15;;;;;;;3.70;0.80;;;;;;;;;;5110428;28;20737;-62
2020/12/26 13:43:41;;;;;;;5.13;1.33;;;;;;;;;;5109978;28;20529;-67
2020/12/26 13:46:07;;;;;;;4.47;0.80;;;;;;;;;;5110869;28;20024;-62
2020/12/26 13:48:33;;;;;;;5.82;1.00;;;;;;;;;;5110806;28;20381;-62
2020/12/26 13:50:59;;;;;;;5.38;1.33;;;;;;;;;;5108583;28;20039;-61
2020/12/26 13:53:26;;;;;;;2.65;1.25;;;;;;;;;;5110715;28;20024;-61
2020/12/26 13:55:52;;;;;;;3.47;1.40;;;;;;;;;;5110523;28;20476;-61
2020/12/26 13:58:18;;;;;;;8.90;1.05;;;;;;;;;;5110484;28;20051;-62
2020/12/26 14:00:44;;;;;;;4.25;1.02;;;;;;;;;;5110319;28;20489;-57
2020/12/26 14:03:10;;;;;;;7.85;1.58;;;;;;;;;;5110508;28;20428;-59
2020/12/26 14:05:36;;;;;;;7.13;0.80;;;;;;;;;;5110221;28;20035;-59
2020/12/26 14:08:02;;;;;;;5.63;1.05;;;;;;;;;;5109764;28;20131;-59
2020/12/26 14:10:29;;;;;;;7.28;1.08;;;;;;;;;;5110300;28;20145;-59
2020/12/26 14:12:55;;;;;;;3.95;1.00;;;;;;;;;;5113407;28;20031;-59
2020/12/26 14:15:21;;;;;;;4.85;0.95;;;;;;;;;;5114925;28;20027;-59
2020/12/26 14:17:47;;;;;;;5.35;0.77;;;;;;;;;;5114775;28;20114;-59
2020/12/26 14:20:19;;;;;;;7.10;0.90;;;;;;;;;;5120001;27;20032;-59
2020/12/26 14:23:06;;;;;;;9.75;0.82;;;;;;;;;;5118681;27;20020;-60
2020/12/26 14:25:51;;;;;;;9.45;1.02;;;;;;;;;;5122444;27;20026;-59
2020/12/26 14:28:40;;;;;;;5.70;0.75;;;;;;;;;;5122723;27;20030;-60
2020/12/26 14:31:24;;;;;;;3.35;1.17;;;;;;;;;;5121873;27;21237;-59
2020/12/26 14:33:56;;;;;;;5.40;1.30;;;;;;;;;;5098272;28;20051;-59
2020/12/26 14:36:23;;;;;;;6.82;1.20;;;;;;;;;;5112956;28;20027;-59
2020/12/26 14:38:49;;;;;;;8.43;1.70;;;;;;;;;;5113888;28;20076;-59
2020/12/26 14:41:16;;;;;;;4.97;1.30;;;;;;;;;;5114146;28;20122;-58
2020/12/26 14:43:42;;;;;;;6.35;1.50;;;;;;;;;;5113955;28;20476;-59
2020/12/26 14:46:08;;;;;;;2.42;0.90;;;;;;;;;;5114265;28;20061;-60
2020/12/26 14:48:35;;;;;;;4.95;1.10;;;;;;;;;;5113719;28;20012;-57
2020/12/26 14:51:01;;;;;;;7.18;1.50;;;;;;;;;;5112419;28;20122;-59
2020/12/26 14:53:27;;;;;;;7.72;1.60;;;;;;;;;;5114105;28;20027;-59
2020/12/26 14:55:53;;;;;;;4.00;1.15;;;;;;;;;;5113916;28;20042;-59
2020/12/26 14:58:19;;;;;;;9.07;1.50;;;;;;;;;;5113496;28;20503;-59
2020/12/26 15:00:45;;;;;;;8.45;1.30;;;;;;;;;;5113708;28;20034;-59
2020/12/26 15:03:11;;;;;;;7.90;1.13;;;;;;;;;;5113677;28;20393;-60
2020/12/26 15:05:37;;;;;;;7.90;1.40;;;;;;;;;;5113752;28;20072;-59
2020/12/26 15:08:03;;;;;;;4.80;1.30;;;;;;;;;;5113286;28;20027;-59
2020/12/26 15:10:29;;;;;;;7.10;1.33;;;;;;;;;;5113535;28;20078;-59
2020/12/26 15:12:56;;;;;;;2.45;1.15;;;;;;;;;;5113627;28;20134;-59
2020/12/26 15:15:22;;;;;;;9.50;1.30;;;;;;;;;;5113645;28;20022;-58
2020/12/26 15:17:48;;;;;;;9.13;1.42;;;;;;;;;;5112787;28;20024;-59
2020/12/26 15:20:14;;;;;;;7.07;2.00;;;;;;;;;;5113008;28;20019;-59
2020/12/26 15:22:40;;;;;;;4.53;1.17;;;;;;;;;;5112544;28;20074;-59
2020/12/26 15:25:06;;;;;;;6.75;1.70;;;;;;;;;;5113389;28;20027;-58
2020/12/26 15:27:33;;;;;;;6.38;1.67;;;;;;;;;;5113652;28;20031;-57
2020/12/26 15:29:59;;;;;;;12.02;2.10;;;;;;;;;;5113603;28;20035;-58
2020/12/26 15:32:25;;;;;;;11.00;2.25;;;;;;;;;;5113002;28;20023;-58
2020/12/26 15:34:51;;;;;;;9.15;1.38;;;;;;;;;;5111775;28;20446;-58
2020/12/26 15:37:17;;;;;;;7.82;1.85;;;;;;;;;;5113109;28;20027;-57
2020/12/26 15:39:43;;;;;;;5.47;1.42;;;;;;;;;;5113101;28;20042;-58
2020/12/26 15:42:09;;;;;;;9.80;1.85;;;;;;;;;;5113696;28;20072;-58
2020/12/26 15:44:35;;;;;;;6.03;2.15;;;;;;;;;;5113033;28;20023;-58
2020/12/26 15:47:01;;;;;;;11.07;1.88;;;;;;;;;;5112274;28;20384;-56
2020/12/26 15:49:28;;;;;;;5.82;1.30;;;;;;;;;;5113128;28;20042;-58
2020/12/26 15:51:54;;;;;;;8.10;1.58;;;;;;;;;;5112700;28;20052;-58
2020/12/26 15:54:20;;;;;;;6.90;1.48;;;;;;;;;;5113066;27;20539;-58
2020/12/26 15:56:46;;;;;;;7.15;1.60;;;;;;;;;;5112528;28;20040;-58
2020/12/26 15:59:12;;;;;;;4.45;1.02;;;;;;;;;;5112501;28;20008;-58
2020/12/26 16:01:38;;;;;;;8.27;1.13;;;;;;;;;;5112122;28;20034;-56
2020/12/26 16:04:04;;;;;;;10.57;2.03;;;;;;;;;;5107826;28;20085;-57
2020/12/26 16:06:31;;;;;;;13.18;1.48;;;;;;;;;;5108987;28;20080;-58
2020/12/26 16:08:58;;;;;;;11.07;1.90;;;;;;;;;;5108264;28;20032;-56
2020/12/26 16:11:28;;;;;;;8.38;2.08;;;;;;;;;;5107926;28;20515;-55
2020/12/26 16:13:54;;;;;;;14.07;2.17;;;;;;;;;;5107124;27;20527;-53
2020/12/26 16:16:20;;;;;;;10.18;1.85;;;;;;;;;;5106314;28;20038;-57
2020/12/26 16:18:46;;;;;;;10.38;1.63;;;;;;;;;;5108017;28;20114;-58
2020/12/26 16:21:12;;;;;;;8.38;1.60;;;;;;;;;;5104437;28;20023;-59
2020/12/26 16:23:39;;;;;;;9.77;2.00;;;;;;;;;;5107647;28;20180;-59
2020/12/26 16:26:05;;;;;;;7.22;1.88;;;;;;;;;;5108913;28;20040;-58
2020/12/26 16:28:31;;;;;;;8.10;1.27;;;;;;;;;;5109417;27;20105;-58
2020/12/26 16:30:57;;;;;;;7.75;1.67;;;;;;;;;;5108231;28;20097;-57
2020/12/26 16:33:24;;;;;;;6.60;1.30;;;;;;;;;;5108987;27;20020;-57
2020/12/26 16:35:50;;;;;;;12.43;1.98;;;;;;;;;;5107987;28;20058;-56
2020/12/26 16:38:16;;;;;;;9.32;1.13;;;;;;;;;;5109568;27;20065;-58
2020/12/26 16:40:43;;;;;;;7.43;1.20;;;;;;;;;;5109504;28;20112;-57
2020/12/26 16:43:09;;;;;;;10.50;1.95;;;;;;;;;;5109874;28;20059;-58
2020/12/26 16:45:35;;;;;;;5.68;1.17;;;;;;;;;;5109879;28;20403;-57
2020/12/26 16:48:01;;;;;;;9.02;1.27;;;;;;;;;;5107808;28;20034;-57
2020/12/26 16:50:27;;;;;;;10.05;1.75;;;;;;;;;;5108739;28;20434;-57
2020/12/26 16:52:54;;;;;;;11.77;2.03;;;;;;;;;;5108646;28;20012;-57
2020/12/26 16:55:20;;;;;;;9.52;1.60;;;;;;;;;;5109544;28;20059;-57
2020/12/26 16:57:46;;;;;;;11.43;2.00;;;;;;;;;;5109635;28;20549;-58
2020/12/26 17:00:12;;;;;;;11.98;1.55;;;;;;;;;;5108106;28;20031;-58
2020/12/26 17:02:39;;;;;;;12.63;2.03;;;;;;;;;;5109461;27;20031;-57
2020/12/26 17:05:05;;;;;;;10.95;2.58;;;;;;;;;;5107871;28;20054;-57
2020/12/26 17:07:32;;;;;;;10.50;1.73;;;;;;;;;;5110875;28;20103;-57
2020/12/26 17:09:58;;;;;;;7.47;1.50;;;;;;;;;;5109219;28;20077;-58
2020/12/26 17:12:25;;;;;;;7.53;1.20;;;;;;;;;;5110181;28;20032;-55
2020/12/26 17:14:51;;;;;;;9.30;1.70;;;;;;;;;;5111256;28;20073;-57
2020/12/26 17:17:18;;;;;;;15.90;1.55;;;;;;;;;;5110747;28;20450;-58
2020/12/26 17:19:44;;;;;;;9.00;2.10;;;;;;;;;;5108799;28;20019;-59
2020/12/26 17:22:10;;;;;;;10.15;1.30;;;;;;;;;;5110772;28;20404;-67
2020/12/26 17:24:36;;;;;;;9.43;1.90;;;;;;;;;;5109950;28;20039;-64
2020/12/26 17:27:03;;;;;;;6.70;2.08;;;;;;;;;;5111352;28;20027;-59
2020/12/26 17:29:29;;;;;;;8.43;1.75;;;;;;;;;;5108112;28;20031;-59
2020/12/26 17:31:55;;;;;;;12.40;1.80;;;;;;;;;;5106044;28;20036;-59
2020/12/26 17:34:21;;;;;;;9.70;1.02;;;;;;;;;;5111001;28;20027;-59
2020/12/26 17:36:48;;;;;;;9.45;2.42;;;;;;;;;;5110982;28;20069;-59
2020/12/26 17:39:14;;;;;;;7.85;2.33;;;;;;;;;;5111790;28;20019;-60
2020/12/26 17:41:40;;;;;;;9.18;1.90;;;;;;;;;;5110740;28;20050;-59
2020/12/26 17:44:06;;;;;;;12.45;2.40;;;;;;;;;;5109941;28;20073;-59
2020/12/26 17:46:35;;;;;;;14.60;1.70;;;;;;;;;;5110057;28;20536;-59
2020/12/26 17:49:03;;;;;;;16.25;1.90;;;;;;;;;;5110514;28;20650;-59
2020/12/26 17:51:29;;;;;;;10.95;1.80;;;;;;;;;;5110576;28;20623;-59
2020/12/26 17:53:55;;;;;;;13.75;1.83;;;;;;;;;;5111265;28;20023;-59
2020/12/26 17:56:21;;;;;;;16.52;2.28;;;;;;;;;;5110876;28;20055;-58
2020/12/26 17:58:48;;;;;;;13.38;1.92;;;;;;;;;;5110566;28;20034;-60
2020/12/26 18:01:15;;;;;;;9.23;1.55;;;;;;;;;;5110516;28;20023;-58
2020/12/26 18:03:42;;;;;;;9.20;1.88;;;;;;;;;;5110176;28;20070;-60
2020/12/26 18:06:08;;;;;;;18.25;9.07;;;;;;;;;;5111618;28;20031;-59
2020/12/26 18:08:35;;;;;;;24.02;2.92;;;;;;;;;;5110530;28;20051;-61
2020/12/26 18:11:02;;;;;;;11.13;2.55;;;;;;;;;;5110480;28;20157;-60
2020/12/26 18:13:28;;;;;;;10.63;3.35;;;;;;;;;;5110506;28;20012;-59
2020/12/26 18:15:55;;;;;;;8.77;3.75;;;;;;;;;;5110136;28;20032;-60
2020/12/26 18:18:21;;;;;;;10.95;3.92;;;;;;;;;;5111442;28;20027;-59
2020/12/26 18:20:49;;;;;;;12.38;2.17;;;;;;;;;;5110176;28;20036;-60
2020/12/26 18:23:15;;;;;;;15.75;5.53;;;;;;;;;;5110326;28;20016;-59
2020/12/26 18:25:41;;;;;;;11.27;1.58;;;;;;;;;;5107698;28;20515;-60
2020/12/26 18:28:07;;;;;;;9.32;2.05;;;;;;;;;;5100452;28;20019;-59
2020/12/26 18:30:34;;;;;;;12.65;1.90;;;;;;;;;;5108880;28;20473;-61
2020/12/26 18:33:05;;;;;;;21.50;8.00;;;;;;;;;;5110718;28;20026;-59
2020/12/26 18:35:31;;;;;;;9.88;1.45;;;;;;;;;;5108826;28;20381;-59
2020/12/26 18:37:57;;;;;;;19.63;2.17;;;;;;;;;;5109757;28;20551;-59
2020/12/26 18:40:23;;;;;;;9.90;1.60;;;;;;;;;;5109494;28;20008;-59
2020/12/26 18:42:49;;;;;;;14.38;2.70;;;;;;;;;;5094202;28;20065;-59
2020/12/26 18:45:17;;;;;;;12.18;2.28;;;;;;;;;;5109640;28;20084;-59
2020/12/26 18:47:43;;;;;;;16.08;2.20;;;;;;;;;;5109944;28;20502;-60
2020/12/26 18:50:09;;;;;;;17.67;2.10;;;;;;;;;;5110284;28;20026;-58
2020/12/26 18:52:35;;;;;;;13.50;1.60;;;;;;;;;;5110379;28;20058;-60
2020/12/26 18:55:01;;;;;;;13.60;2.92;;;;;;;;;;5109979;28;20479;-59
2020/12/26 18:57:28;;;;;;;9.20;2.65;;;;;;;;;;5110806;28;20558;-58
2020/12/26 18:59:54;;;;;;;10.25;3.35;;;;;;;;;;5113153;28;20035;-59
2020/12/26 19:02:20;;;;;;;13.73;2.45;;;;;;;;;;5113623;28;20023;-59
2020/12/26 19:04:47;;;;;;;8.75;1.60;;;;;;;;;;5113600;28;20036;-59
2020/12/26 19:07:13;;;;;;;12.52;2.92;;;;;;;;;;5113912;28;20030;-59
2020/12/26 19:09:40;;;;;;;11.30;2.67;;;;;;;;;;5113417;28;20486;-60
2020/12/26 19:12:07;;;;;;;17.63;2.13;;;;;;;;;;5113717;28;20039;-59
2020/12/26 19:14:33;;;;;;;18.88;3.10;;;;;;;;;;5110863;28;20028;-60
2020/12/26 19:17:00;;;;;;;11.38;2.10;;;;;;;;;;5107196;28;20392;-59
2020/12/26 19:19:26;;;;;;;21.00;2.72;;;;;;;;;;5111092;27;20042;-60
2020/12/26 19:21:52;;;;;;;15.13;1.80;;;;;;;;;;5115693;27;20035;-59
2020/12/26 19:24:18;;;;;;;10.55;2.50;;;;;;;;;;5106436;27;20057;-60
2020/12/26 19:26:44;;;;;;;9.93;1.50;;;;;;;;;;5107065;28;20039;-60
2020/12/26 19:29:12;;;;;;;11.07;2.05;;;;;;;;;;5109185;28;20043;-59
2020/12/26 19:31:41;;;;;;;12.27;2.60;;;;;;;;;;5109379;28;20032;-61
2020/12/26 19:34:07;;;;;;;11.93;1.52;;;;;;;;;;5095765;28;20096;-59
2020/12/26 19:36:34;;;;;;;14.85;1.73;;;;;;;;;;5109825;28;20031;-59
2020/12/26 19:39:00;;;;;;;12.75;1.80;;;;;;;;;;5109792;28;20093;-59
2020/12/26 19:41:27;;;;;;;8.75;1.88;;;;;;;;;;5109188;28;20030;-59
2020/12/26 19:43:53;;;;;;;9.32;1.58;;;;;;;;;;5109416;28;20510;-60
2020/12/26 19:46:19;;;;;;;11.88;1.77;;;;;;;;;;5109758;28;20024;-61
2020/12/26 19:48:45;;;;;;;12.15;1.48;;;;;;;;;;5109653;28;20488;-60
2020/12/26 19:51:14;;;;;;;20.83;2.50;;;;;;;;;;5109952;28;20421;-61
2020/12/26 19:53:40;;;;;;;9.75;1.60;;;;;;;;;;5108924;28;20053;-61
2020/12/26 19:56:07;;;;;;;11.57;1.83;;;;;;;;;;5109490;27;20428;-60
2020/12/26 19:58:33;;;;;;;15.30;2.13;;;;;;;;;;5109773;28;20023;-60
2020/12/26 20:00:59;;;;;;;11.60;1.85;;;;;;;;;;5108963;28;20548;-60
2020/12/26 20:03:25;;;;;;;16.70;2.20;;;;;;;;;;5109360;28;20043;-60
2020/12/26 20:05:51;;;;;;;10.43;2.05;;;;;;;;;;5109278;28;20036;-60
2020/12/26 20:08:17;;;;;;;12.35;2.35;;;;;;;;;;5109192;28;20492;-61
2020/12/26 20:10:44;;;;;;;17.13;2.45;;;;;;;;;;5108922;28;20543;-60
2020/12/26 20:13:10;;;;;;;19.48;2.53;;;;;;;;;;5109178;28;20007;-60
2020/12/26 20:15:37;;;;;;;12.50;1.98;;;;;;;;;;5109313;28;20067;-60
2020/12/26 20:18:03;;;;;;;20.30;2.92;;;;;;;;;;5107511;28;20062;-60
2020/12/26 20:20:29;;;;;;;13.15;2.08;;;;;;;;;;5108193;28;20065;-60
2020/12/26 20:22:55;;;;;;;15.43;2.15;;;;;;;;;;5108630;28;20030;-60
2020/12/26 20:25:22;;;;;;;17.25;2.22;;;;;;;;;;5109002;28;20438;-60
2020/12/26 20:27:48;;;;;;;10.82;2.25;;;;;;;;;;5108655;28;20027;-60
2020/12/26 20:30:14;;;;;;;18.83;2.42;;;;;;;;;;5109511;28;20357;-60
2020/12/26 20:32:41;;;;;;;16.75;1.88;;;;;;;;;;5108145;27;20029;-60
2020/12/26 20:35:07;;;;;;;12.23;1.95;;;;;;;;;;5108683;28;20031;-60
2020/12/26 20:37:33;;;;;;;14.50;1.55;;;;;;;;;;5108393;28;20020;-60
2020/12/26 20:40:00;;;;;;;17.38;1.88;;;;;;;;;;5108461;28;20019;-60
2020/12/26 20:42:26;;;;;;;9.88;2.20;;;;;;;;;;5108707;28;20416;-59
2020/12/26 20:44:52;;;;;;;9.07;1.83;;;;;;;;;;5109057;28;20024;-60
2020/12/26 20:47:18;;;;;;;12.20;2.33;;;;;;;;;;5107966;28;20027;-60